sensor_id;sensor_type;location;lat;lon;timestamp;P1;durP1;ratioP1;P2;durP2;ratioP2
58071;SDS011;60383;46.626;18.866;2022-07-29T00:00:44;5.90;;;3.88;;
58071;SDS011;60383;46.626;18.866;2022-07-29T00:03:13;5.53;;;3.97;;
58071;SDS011;60383;46.626;18.866;2022-07-29T00:05:39;4.77;;;4.07;;
58071;SDS011;60383;46.626;18.866;2022-07-29T00:08:05;7.70;;;4.32;;
58071;SDS011;60383;46.626;18.866;2022-07-29T00:10:31;5.13;;;4.05;;
58071;SDS011;60383;46.626;18.866;2022-07-29T00:12:57;6.35;;;4.30;;
58071;SDS011;60383;46.626;18.866;2022-07-29T00:15:22;5.60;;;4.07;;
58071;SDS011;60383;46.626;18.866;2022-07-29T00:17:48;4.13;;;3.72;;
58071;SDS011;60383;46.626;18.866;2022-07-29T00:20:13;5.95;;;3.90;;
58071;SDS011;60383;46.626;18.866;2022-07-29T00:22:39;5.28;;;4.40;;
58071;SDS011;60383;46.626;18.866;2022-07-29T00:25:05;5.70;;;3.95;;
58071;SDS011;60383;46.626;18.866;2022-07-29T00:27:31;6.50;;;3.92;;
58071;SDS011;60383;46.626;18.866;2022-07-29T00:29:56;6.10;;;4.45;;
58071;SDS011;60383;46.626;18.866;2022-07-29T00:32:22;4.90;;;4.40;;
58071;SDS011;60383;46.626;18.866;2022-07-29T00:34:47;6.68;;;4.25;;
58071;SDS011;60383;46.626;18.866;2022-07-29T00:37:31;5.55;;;4.30;;
58071;SDS011;60383;46.626;18.866;2022-07-29T00:39:57;4.63;;;4.15;;
58071;SDS011;60383;46.626;18.866;2022-07-29T00:42:22;7.05;;;3.95;;
58071;SDS011;60383;46.626;18.866;2022-07-29T00:44:48;4.75;;;4.10;;
58071;SDS011;60383;46.626;18.866;2022-07-29T00:47:13;6.72;;;4.45;;
58071;SDS011;60383;46.626;18.866;2022-07-29T00:49:39;8.68;;;4.40;;
58071;SDS011;60383;46.626;18.866;2022-07-29T00:52:06;5.22;;;4.00;;
58071;SDS011;60383;46.626;18.866;2022-07-29T00:54:51;4.80;;;4.30;;
58071;SDS011;60383;46.626;18.866;2022-07-29T00:57:17;7.40;;;4.13;;
58071;SDS011;60383;46.626;18.866;2022-07-29T00:59:42;5.05;;;4.47;;
58071;SDS011;60383;46.626;18.866;2022-07-29T01:02:08;4.50;;;3.72;;
58071;SDS011;60383;46.626;18.866;2022-07-29T01:04:34;4.38;;;3.97;;
58071;SDS011;60383;46.626;18.866;2022-07-29T01:07:03;9.77;;;4.18;;
58071;SDS011;60383;46.626;18.866;2022-07-29T01:09:29;5.20;;;3.95;;
58071;SDS011;60383;46.626;18.866;2022-07-29T01:11:57;6.43;;;4.18;;
58071;SDS011;60383;46.626;18.866;2022-07-29T01:14:24;5.75;;;4.47;;
58071;SDS011;60383;46.626;18.866;2022-07-29T01:17:01;7.28;;;4.22;;
58071;SDS011;60383;46.626;18.866;2022-07-29T01:28:01;5.03;;;4.05;;
58071;SDS011;60383;46.626;18.866;2022-07-29T01:32:59;3.95;;;3.55;;
58071;SDS011;60383;46.626;18.866;2022-07-29T01:35:38;7.68;;;4.18;;
58071;SDS011;60383;46.626;18.866;2022-07-29T01:43:11;6.20;;;4.13;;
58071;SDS011;60383;46.626;18.866;2022-07-29T01:45:40;5.60;;;3.67;;
58071;SDS011;60383;46.626;18.866;2022-07-29T01:48:15;6.63;;;3.65;;
58071;SDS011;60383;46.626;18.866;2022-07-29T01:50:48;3.80;;;3.45;;
58071;SDS011;60383;46.626;18.866;2022-07-29T01:53:22;5.78;;;4.10;;
58071;SDS011;60383;46.626;18.866;2022-07-29T01:56:08;4.75;;;4.10;;
58071;SDS011;60383;46.626;18.866;2022-07-29T01:58:36;4.07;;;3.55;;
58071;SDS011;60383;46.626;18.866;2022-07-29T02:01:05;4.57;;;4.05;;
58071;SDS011;60383;46.626;18.866;2022-07-29T02:03:33;6.28;;;3.70;;
58071;SDS011;60383;46.626;18.866;2022-07-29T02:06:01;6.10;;;4.00;;
58071;SDS011;60383;46.626;18.866;2022-07-29T02:08:29;5.40;;;4.30;;
58071;SDS011;60383;46.626;18.866;2022-07-29T02:10:56;4.55;;;3.90;;
58071;SDS011;60383;46.626;18.866;2022-07-29T02:13:23;5.70;;;4.40;;
58071;SDS011;60383;46.626;18.866;2022-07-29T02:15:51;6.15;;;3.80;;
58071;SDS011;60383;46.626;18.866;2022-07-29T02:18:18;9.43;;;4.00;;
58071;SDS011;60383;46.626;18.866;2022-07-29T02:20:46;5.05;;;3.88;;
58071;SDS011;60383;46.626;18.866;2022-07-29T02:23:14;5.00;;;3.85;;
58071;SDS011;60383;46.626;18.866;2022-07-29T02:25:44;5.97;;;4.00;;
58071;SDS011;60383;46.626;18.866;2022-07-29T02:28:12;4.40;;;4.00;;
58071;SDS011;60383;46.626;18.866;2022-07-29T02:30:39;7.78;;;4.20;;
58071;SDS011;60383;46.626;18.866;2022-07-29T02:33:07;4.82;;;3.90;;
58071;SDS011;60383;46.626;18.866;2022-07-29T02:35:34;5.18;;;3.92;;
58071;SDS011;60383;46.626;18.866;2022-07-29T02:38:01;5.05;;;4.25;;
58071;SDS011;60383;46.626;18.866;2022-07-29T02:40:46;4.95;;;4.50;;
58071;SDS011;60383;46.626;18.866;2022-07-29T02:43:13;6.80;;;4.88;;
58071;SDS011;60383;46.626;18.866;2022-07-29T02:45:39;8.82;;;4.63;;
58071;SDS011;60383;46.626;18.866;2022-07-29T02:48:05;6.25;;;4.40;;
58071;SDS011;60383;46.626;18.866;2022-07-29T02:50:38;5.65;;;4.07;;
58071;SDS011;60383;46.626;18.866;2022-07-29T02:53:16;6.03;;;4.60;;
58071;SDS011;60383;46.626;18.866;2022-07-29T02:55:45;7.03;;;4.50;;
58071;SDS011;60383;46.626;18.866;2022-07-29T03:01:16;7.50;;;5.18;;
58071;SDS011;60383;46.626;18.866;2022-07-29T03:06:13;6.90;;;4.20;;
58071;SDS011;60383;46.626;18.866;2022-07-29T03:08:40;5.72;;;4.80;;
58071;SDS011;60383;46.626;18.866;2022-07-29T03:11:07;9.88;;;4.93;;
58071;SDS011;60383;46.626;18.866;2022-07-29T03:13:34;7.57;;;4.85;;
58071;SDS011;60383;46.626;18.866;2022-07-29T03:16:01;5.88;;;4.28;;
58071;SDS011;60383;46.626;18.866;2022-07-29T03:18:27;6.13;;;4.82;;
58071;SDS011;60383;46.626;18.866;2022-07-29T03:20:53;4.55;;;4.13;;
58071;SDS011;60383;46.626;18.866;2022-07-29T03:23:19;7.97;;;4.95;;
58071;SDS011;60383;46.626;18.866;2022-07-29T03:25:47;6.80;;;4.80;;
58071;SDS011;60383;46.626;18.866;2022-07-29T03:28:13;5.22;;;4.63;;
58071;SDS011;60383;46.626;18.866;2022-07-29T03:30:39;6.60;;;4.65;;
58071;SDS011;60383;46.626;18.866;2022-07-29T03:33:04;6.05;;;5.07;;
58071;SDS011;60383;46.626;18.866;2022-07-29T03:35:30;6.20;;;4.78;;
58071;SDS011;60383;46.626;18.866;2022-07-29T03:37:56;7.80;;;4.50;;
58071;SDS011;60383;46.626;18.866;2022-07-29T03:40:24;5.15;;;4.65;;
58071;SDS011;60383;46.626;18.866;2022-07-29T03:42:52;7.18;;;5.05;;
58071;SDS011;60383;46.626;18.866;2022-07-29T03:45:20;6.57;;;5.00;;
58071;SDS011;60383;46.626;18.866;2022-07-29T03:47:52;8.20;;;5.43;;
58071;SDS011;60383;46.626;18.866;2022-07-29T03:50:22;8.90;;;4.82;;
58071;SDS011;60383;46.626;18.866;2022-07-29T03:52:48;5.35;;;4.82;;
58071;SDS011;60383;46.626;18.866;2022-07-29T03:55:14;6.47;;;5.70;;
58071;SDS011;60383;46.626;18.866;2022-07-29T03:57:40;7.97;;;5.00;;
58071;SDS011;60383;46.626;18.866;2022-07-29T04:00:07;5.97;;;4.72;;
58071;SDS011;60383;46.626;18.866;2022-07-29T04:02:34;6.50;;;5.13;;
58071;SDS011;60383;46.626;18.866;2022-07-29T04:05:01;7.82;;;4.97;;
58071;SDS011;60383;46.626;18.866;2022-07-29T04:07:26;5.40;;;4.90;;
58071;SDS011;60383;46.626;18.866;2022-07-29T04:09:52;6.90;;;4.88;;
58071;SDS011;60383;46.626;18.866;2022-07-29T04:12:17;8.65;;;5.10;;
58071;SDS011;60383;46.626;18.866;2022-07-29T04:14:43;5.40;;;4.68;;
58071;SDS011;60383;46.626;18.866;2022-07-29T04:17:08;10.80;;;5.30;;
58071;SDS011;60383;46.626;18.866;2022-07-29T04:19:33;6.53;;;4.63;;
58071;SDS011;60383;46.626;18.866;2022-07-29T04:21:59;5.22;;;4.72;;
58071;SDS011;60383;46.626;18.866;2022-07-29T04:24:25;6.15;;;5.00;;
58071;SDS011;60383;46.626;18.866;2022-07-29T04:26:51;5.10;;;4.60;;
58071;SDS011;60383;46.626;18.866;2022-07-29T04:29:16;5.75;;;4.95;;
58071;SDS011;60383;46.626;18.866;2022-07-29T04:31:42;8.48;;;4.95;;
58071;SDS011;60383;46.626;18.866;2022-07-29T04:34:09;6.03;;;4.82;;
58071;SDS011;60383;46.626;18.866;2022-07-29T04:36:35;6.28;;;4.70;;
58071;SDS011;60383;46.626;18.866;2022-07-29T04:39:01;7.35;;;4.80;;
58071;SDS011;60383;46.626;18.866;2022-07-29T04:41:29;7.97;;;4.90;;
58071;SDS011;60383;46.626;18.866;2022-07-29T04:43:55;5.47;;;4.95;;
58071;SDS011;60383;46.626;18.866;2022-07-29T04:46:21;6.32;;;5.15;;
58071;SDS011;60383;46.626;18.866;2022-07-29T04:48:47;6.00;;;4.55;;
58071;SDS011;60383;46.626;18.866;2022-07-29T04:51:13;5.72;;;4.95;;
58071;SDS011;60383;46.626;18.866;2022-07-29T04:53:39;6.50;;;4.88;;
58071;SDS011;60383;46.626;18.866;2022-07-29T04:56:05;9.25;;;5.35;;
58071;SDS011;60383;46.626;18.866;2022-07-29T04:58:30;9.20;;;4.97;;
58071;SDS011;60383;46.626;18.866;2022-07-29T05:00:56;5.78;;;5.05;;
58071;SDS011;60383;46.626;18.866;2022-07-29T05:03:21;6.57;;;4.72;;
58071;SDS011;60383;46.626;18.866;2022-07-29T05:05:47;5.30;;;4.80;;
58071;SDS011;60383;46.626;18.866;2022-07-29T05:08:12;7.60;;;5.32;;
58071;SDS011;60383;46.626;18.866;2022-07-29T05:10:38;8.95;;;5.07;;
58071;SDS011;60383;46.626;18.866;2022-07-29T05:13:06;6.82;;;5.30;;
58071;SDS011;60383;46.626;18.866;2022-07-29T05:15:35;5.80;;;5.20;;
58071;SDS011;60383;46.626;18.866;2022-07-29T05:18:01;7.18;;;5.30;;
58071;SDS011;60383;46.626;18.866;2022-07-29T05:20:27;7.70;;;5.45;;
58071;SDS011;60383;46.626;18.866;2022-07-29T05:22:56;8.05;;;5.63;;
58071;SDS011;60383;46.626;18.866;2022-07-29T05:25:23;5.72;;;5.20;;
58071;SDS011;60383;46.626;18.866;2022-07-29T05:27:49;6.78;;;5.47;;
58071;SDS011;60383;46.626;18.866;2022-07-29T05:30:14;6.18;;;5.57;;
58071;SDS011;60383;46.626;18.866;2022-07-29T05:32:39;7.22;;;5.13;;
58071;SDS011;60383;46.626;18.866;2022-07-29T05:35:05;5.82;;;5.32;;
58071;SDS011;60383;46.626;18.866;2022-07-29T05:37:31;9.55;;;5.30;;
58071;SDS011;60383;46.626;18.866;2022-07-29T05:39:56;9.25;;;5.45;;
58071;SDS011;60383;46.626;18.866;2022-07-29T05:42:22;6.47;;;5.40;;
58071;SDS011;60383;46.626;18.866;2022-07-29T05:44:47;8.70;;;5.82;;
58071;SDS011;60383;46.626;18.866;2022-07-29T05:47:13;8.23;;;5.68;;
58071;SDS011;60383;46.626;18.866;2022-07-29T05:49:38;7.03;;;5.57;;
58071;SDS011;60383;46.626;18.866;2022-07-29T05:52:04;7.75;;;5.93;;
58071;SDS011;60383;46.626;18.866;2022-07-29T05:54:29;7.30;;;5.55;;
58071;SDS011;60383;46.626;18.866;2022-07-29T05:56:55;7.55;;;5.82;;
58071;SDS011;60383;46.626;18.866;2022-07-29T05:59:21;11.48;;;5.85;;
58071;SDS011;60383;46.626;18.866;2022-07-29T06:01:46;7.97;;;5.80;;
58071;SDS011;60383;46.626;18.866;2022-07-29T06:04:12;6.95;;;6.25;;
58071;SDS011;60383;46.626;18.866;2022-07-29T06:06:37;6.22;;;5.57;;
58071;SDS011;60383;46.626;18.866;2022-07-29T06:09:03;7.03;;;6.00;;
58071;SDS011;60383;46.626;18.866;2022-07-29T06:11:28;7.68;;;6.03;;
58071;SDS011;60383;46.626;18.866;2022-07-29T06:13:54;6.93;;;5.60;;
58071;SDS011;60383;46.626;18.866;2022-07-29T06:16:19;7.18;;;6.05;;
58071;SDS011;60383;46.626;18.866;2022-07-29T06:18:45;6.22;;;5.63;;
58071;SDS011;60383;46.626;18.866;2022-07-29T06:21:10;7.00;;;6.30;;
58071;SDS011;60383;46.626;18.866;2022-07-29T06:23:36;9.30;;;6.43;;
58071;SDS011;60383;46.626;18.866;2022-07-29T06:26:03;10.85;;;5.93;;
58071;SDS011;60383;46.626;18.866;2022-07-29T06:28:29;10.77;;;6.07;;
58071;SDS011;60383;46.626;18.866;2022-07-29T06:30:54;7.63;;;6.03;;
58071;SDS011;60383;46.626;18.866;2022-07-29T06:33:19;9.13;;;6.30;;
58071;SDS011;60383;46.626;18.866;2022-07-29T06:35:45;7.03;;;6.13;;
58071;SDS011;60383;46.626;18.866;2022-07-29T06:38:12;8.52;;;6.00;;
58071;SDS011;60383;46.626;18.866;2022-07-29T06:40:42;9.27;;;6.28;;
58071;SDS011;60383;46.626;18.866;2022-07-29T06:43:38;6.90;;;6.22;;
58071;SDS011;60383;46.626;18.866;2022-07-29T06:46:15;6.90;;;5.82;;
58071;SDS011;60383;46.626;18.866;2022-07-29T06:48:44;8.30;;;6.22;;
58071;SDS011;60383;46.626;18.866;2022-07-29T06:51:10;7.40;;;6.70;;
58071;SDS011;60383;46.626;18.866;2022-07-29T06:53:37;7.10;;;6.18;;
58071;SDS011;60383;46.626;18.866;2022-07-29T06:56:03;6.35;;;5.70;;
58071;SDS011;60383;46.626;18.866;2022-07-29T06:58:30;8.80;;;6.22;;
58071;SDS011;60383;46.626;18.866;2022-07-29T07:00:56;7.65;;;6.47;;
58071;SDS011;60383;46.626;18.866;2022-07-29T07:03:27;10.57;;;6.10;;
58071;SDS011;60383;46.626;18.866;2022-07-29T07:05:52;8.13;;;5.85;;
58071;SDS011;60383;46.626;18.866;2022-07-29T07:08:19;8.07;;;6.25;;
58071;SDS011;60383;46.626;18.866;2022-07-29T07:10:45;7.15;;;5.93;;
58071;SDS011;60383;46.626;18.866;2022-07-29T07:13:11;8.38;;;6.55;;
58071;SDS011;60383;46.626;18.866;2022-07-29T07:15:37;7.25;;;6.55;;
58071;SDS011;60383;46.626;18.866;2022-07-29T07:18:03;6.88;;;6.18;;
58071;SDS011;60383;46.626;18.866;2022-07-29T07:20:29;8.80;;;6.25;;
58071;SDS011;60383;46.626;18.866;2022-07-29T07:22:54;7.93;;;5.97;;
58071;SDS011;60383;46.626;18.866;2022-07-29T07:25:20;8.63;;;6.22;;
58071;SDS011;60383;46.626;18.866;2022-07-29T07:27:45;8.70;;;6.18;;
58071;SDS011;60383;46.626;18.866;2022-07-29T07:30:11;6.60;;;5.95;;
58071;SDS011;60383;46.626;18.866;2022-07-29T07:32:37;6.82;;;5.97;;
58071;SDS011;60383;46.626;18.866;2022-07-29T07:35:04;6.68;;;6.07;;
58071;SDS011;60383;46.626;18.866;2022-07-29T07:37:31;6.68;;;5.70;;
58071;SDS011;60383;46.626;18.866;2022-07-29T07:39:57;8.68;;;5.85;;
58071;SDS011;60383;46.626;18.866;2022-07-29T07:42:23;8.25;;;5.78;;
58071;SDS011;60383;46.626;18.866;2022-07-29T07:44:48;6.68;;;5.70;;
58071;SDS011;60383;46.626;18.866;2022-07-29T07:47:14;7.10;;;6.10;;
58071;SDS011;60383;46.626;18.866;2022-07-29T07:49:44;8.02;;;5.55;;
58071;SDS011;60383;46.626;18.866;2022-07-29T07:52:11;7.05;;;5.90;;
58071;SDS011;60383;46.626;18.866;2022-07-29T07:54:36;8.73;;;6.00;;
58071;SDS011;60383;46.626;18.866;2022-07-29T07:57:02;6.88;;;6.00;;
58071;SDS011;60383;46.626;18.866;2022-07-29T07:59:27;8.57;;;6.05;;
58071;SDS011;60383;46.626;18.866;2022-07-29T08:01:53;6.40;;;5.63;;
58071;SDS011;60383;46.626;18.866;2022-07-29T08:04:18;6.90;;;5.70;;
58071;SDS011;60383;46.626;18.866;2022-07-29T08:06:43;9.40;;;5.75;;
58071;SDS011;60383;46.626;18.866;2022-07-29T08:09:09;8.55;;;5.40;;
58071;SDS011;60383;46.626;18.866;2022-07-29T08:11:34;6.40;;;5.53;;
58071;SDS011;60383;46.626;18.866;2022-07-29T08:14:00;8.00;;;5.28;;
58071;SDS011;60383;46.626;18.866;2022-07-29T08:16:26;9.52;;;5.57;;
58071;SDS011;60383;46.626;18.866;2022-07-29T08:18:52;6.22;;;5.22;;
58071;SDS011;60383;46.626;18.866;2022-07-29T08:21:22;6.78;;;5.07;;
58071;SDS011;60383;46.626;18.866;2022-07-29T08:23:48;5.70;;;5.13;;
58071;SDS011;60383;46.626;18.866;2022-07-29T08:26:17;5.80;;;4.95;;
58071;SDS011;60383;46.626;18.866;2022-07-29T08:28:44;7.57;;;5.47;;
58071;SDS011;60383;46.626;18.866;2022-07-29T08:31:13;7.13;;;5.30;;
58071;SDS011;60383;46.626;18.866;2022-07-29T08:33:39;7.68;;;5.38;;
58071;SDS011;60383;46.626;18.866;2022-07-29T08:36:05;8.30;;;4.85;;
58071;SDS011;60383;46.626;18.866;2022-07-29T08:38:31;5.40;;;4.90;;
58071;SDS011;60383;46.626;18.866;2022-07-29T08:40:57;7.53;;;4.68;;
58071;SDS011;60383;46.626;18.866;2022-07-29T08:43:23;6.43;;;5.20;;
58071;SDS011;60383;46.626;18.866;2022-07-29T08:45:49;9.90;;;4.72;;
58071;SDS011;60383;46.626;18.866;2022-07-29T08:48:17;5.20;;;4.50;;
58071;SDS011;60383;46.626;18.866;2022-07-29T08:50:44;5.78;;;4.72;;
58071;SDS011;60383;46.626;18.866;2022-07-29T08:53:11;7.10;;;4.55;;
58071;SDS011;60383;46.626;18.866;2022-07-29T08:55:42;6.00;;;4.65;;
58071;SDS011;60383;46.626;18.866;2022-07-29T08:58:09;4.68;;;4.35;;
58071;SDS011;60383;46.626;18.866;2022-07-29T09:00:36;7.32;;;4.60;;
58071;SDS011;60383;46.626;18.866;2022-07-29T09:03:06;5.72;;;4.43;;
58071;SDS011;60383;46.626;18.866;2022-07-29T09:05:34;4.93;;;4.50;;
58071;SDS011;60383;46.626;18.866;2022-07-29T09:08:00;4.63;;;4.22;;
58071;SDS011;60383;46.626;18.866;2022-07-29T09:10:26;4.65;;;3.95;;
58071;SDS011;60383;46.626;18.866;2022-07-29T09:12:51;6.53;;;4.50;;
58071;SDS011;60383;46.626;18.866;2022-07-29T09:15:17;5.57;;;3.70;;
58071;SDS011;60383;46.626;18.866;2022-07-29T09:17:43;5.57;;;4.43;;
58071;SDS011;60383;46.626;18.866;2022-07-29T09:20:17;4.50;;;4.10;;
58071;SDS011;60383;46.626;18.866;2022-07-29T09:22:45;4.95;;;4.13;;
58071;SDS011;60383;46.626;18.866;2022-07-29T09:25:14;4.70;;;4.18;;
58071;SDS011;60383;46.626;18.866;2022-07-29T09:28:06;5.00;;;4.03;;
58071;SDS011;60383;46.626;18.866;2022-07-29T09:30:55;4.55;;;4.15;;
58071;SDS011;60383;46.626;18.866;2022-07-29T09:33:23;6.30;;;4.10;;
58071;SDS011;60383;46.626;18.866;2022-07-29T09:36:13;6.25;;;3.83;;
58071;SDS011;60383;46.626;18.866;2022-07-29T09:38:39;5.93;;;3.80;;
58071;SDS011;60383;46.626;18.866;2022-07-29T09:41:04;6.70;;;3.97;;
58071;SDS011;60383;46.626;18.866;2022-07-29T09:43:31;5.03;;;3.60;;
58071;SDS011;60383;46.626;18.866;2022-07-29T09:46:08;4.32;;;3.60;;
58071;SDS011;60383;46.626;18.866;2022-07-29T09:48:34;4.10;;;3.70;;
58071;SDS011;60383;46.626;18.866;2022-07-29T09:51:00;5.88;;;4.38;;
58071;SDS011;60383;46.626;18.866;2022-07-29T09:55:59;4.75;;;3.67;;
58071;SDS011;60383;46.626;18.866;2022-07-29T09:58:25;4.68;;;3.67;;
58071;SDS011;60383;46.626;18.866;2022-07-29T10:00:52;6.68;;;4.57;;
58071;SDS011;60383;46.626;18.866;2022-07-29T10:03:19;5.65;;;4.10;;
58071;SDS011;60383;46.626;18.866;2022-07-29T10:05:45;6.18;;;3.63;;
58071;SDS011;60383;46.626;18.866;2022-07-29T10:08:11;6.20;;;3.80;;
58071;SDS011;60383;46.626;18.866;2022-07-29T10:10:41;4.97;;;4.10;;
58071;SDS011;60383;46.626;18.866;2022-07-29T10:13:10;5.65;;;4.05;;
58071;SDS011;60383;46.626;18.866;2022-07-29T10:15:48;6.18;;;4.20;;
58071;SDS011;60383;46.626;18.866;2022-07-29T10:18:17;7.20;;;4.10;;
58071;SDS011;60383;46.626;18.866;2022-07-29T10:20:47;6.80;;;4.03;;
58071;SDS011;60383;46.626;18.866;2022-07-29T10:23:13;5.25;;;4.15;;
58071;SDS011;60383;46.626;18.866;2022-07-29T10:25:39;4.70;;;3.97;;
58071;SDS011;60383;46.626;18.866;2022-07-29T10:28:05;5.82;;;4.30;;
58071;SDS011;60383;46.626;18.866;2022-07-29T10:30:34;6.80;;;4.13;;
58071;SDS011;60383;46.626;18.866;2022-07-29T10:35:50;5.65;;;4.07;;
58071;SDS011;60383;46.626;18.866;2022-07-29T10:46:26;5.00;;;4.20;;
58071;SDS011;60383;46.626;18.866;2022-07-29T10:54:18;4.68;;;4.03;;
58071;SDS011;60383;46.626;18.866;2022-07-29T10:57:21;6.55;;;3.38;;
58071;SDS011;60383;46.626;18.866;2022-07-29T11:00:25;5.63;;;3.53;;
58071;SDS011;60383;46.626;18.866;2022-07-29T11:05:05;4.30;;;3.77;;
58071;SDS011;60383;46.626;18.866;2022-07-29T11:07:35;6.18;;;3.90;;
58071;SDS011;60383;46.626;18.866;2022-07-29T11:18:24;5.10;;;3.28;;
58071;SDS011;60383;46.626;18.866;2022-07-29T11:22:59;4.82;;;3.80;;
58071;SDS011;60383;46.626;18.866;2022-07-29T11:25:25;5.43;;;3.80;;
58071;SDS011;60383;46.626;18.866;2022-07-29T11:27:54;6.47;;;4.05;;
58071;SDS011;60383;46.626;18.866;2022-07-29T11:30:52;4.72;;;4.20;;
58071;SDS011;60383;46.626;18.866;2022-07-29T11:33:32;5.57;;;4.15;;
58071;SDS011;60383;46.626;18.866;2022-07-29T11:36:14;9.27;;;4.10;;
58071;SDS011;60383;46.626;18.866;2022-07-29T11:38:40;4.90;;;3.60;;
58071;SDS011;60383;46.626;18.866;2022-07-29T11:41:22;5.05;;;3.80;;
58071;SDS011;60383;46.626;18.866;2022-07-29T11:43:56;5.97;;;3.78;;
58071;SDS011;60383;46.626;18.866;2022-07-29T11:49:23;5.53;;;4.00;;
58071;SDS011;60383;46.626;18.866;2022-07-29T11:51:51;5.65;;;4.10;;
58071;SDS011;60383;46.626;18.866;2022-07-29T11:54:30;6.47;;;4.10;;
58071;SDS011;60383;46.626;18.866;2022-07-29T11:56:58;7.53;;;4.10;;
58071;SDS011;60383;46.626;18.866;2022-07-29T11:59:24;5.22;;;4.57;;
58071;SDS011;60383;46.626;18.866;2022-07-29T12:01:57;5.00;;;4.50;;
58071;SDS011;60383;46.626;18.866;2022-07-29T12:04:24;6.80;;;4.35;;
58071;SDS011;60383;46.626;18.866;2022-07-29T12:06:54;6.45;;;4.72;;
58071;SDS011;60383;46.626;18.866;2022-07-29T12:09:21;7.57;;;4.30;;
58071;SDS011;60383;46.626;18.866;2022-07-29T12:11:47;5.15;;;4.45;;
58071;SDS011;60383;46.626;18.866;2022-07-29T12:14:28;5.55;;;4.47;;
58071;SDS011;60383;46.626;18.866;2022-07-29T12:16:56;5.88;;;4.40;;
58071;SDS011;60383;46.626;18.866;2022-07-29T12:19:22;5.47;;;4.40;;
58071;SDS011;60383;46.626;18.866;2022-07-29T12:21:52;5.13;;;4.63;;
58071;SDS011;60383;46.626;18.866;2022-07-29T12:24:19;5.38;;;4.45;;
58071;SDS011;60383;46.626;18.866;2022-07-29T12:27:04;5.10;;;4.60;;
58071;SDS011;60383;46.626;18.866;2022-07-29T12:29:29;6.55;;;4.93;;
58071;SDS011;60383;46.626;18.866;2022-07-29T12:31:55;6.32;;;4.72;;
58071;SDS011;60383;46.626;18.866;2022-07-29T12:34:22;6.35;;;4.53;;
58071;SDS011;60383;46.626;18.866;2022-07-29T12:36:49;7.97;;;5.03;;
58071;SDS011;60383;46.626;18.866;2022-07-29T12:39:15;9.95;;;4.72;;
58071;SDS011;60383;46.626;18.866;2022-07-29T12:41:42;5.55;;;5.00;;
58071;SDS011;60383;46.626;18.866;2022-07-29T12:44:07;8.05;;;5.30;;
58071;SDS011;60383;46.626;18.866;2022-07-29T12:46:33;5.70;;;5.00;;
58071;SDS011;60383;46.626;18.866;2022-07-29T12:48:58;7.38;;;4.85;;
58071;SDS011;60383;46.626;18.866;2022-07-29T12:51:37;6.18;;;5.00;;
58071;SDS011;60383;46.626;18.866;2022-07-29T12:54:08;8.75;;;5.13;;
58071;SDS011;60383;46.626;18.866;2022-07-29T12:56:36;7.07;;;5.40;;
58071;SDS011;60383;46.626;18.866;2022-07-29T12:59:15;6.28;;;5.10;;
58071;SDS011;60383;46.626;18.866;2022-07-29T13:01:42;9.25;;;5.47;;
58071;SDS011;60383;46.626;18.866;2022-07-29T13:04:08;6.18;;;5.50;;
58071;SDS011;60383;46.626;18.866;2022-07-29T13:06:35;6.28;;;5.50;;
58071;SDS011;60383;46.626;18.866;2022-07-29T13:14:05;8.68;;;5.80;;
58071;SDS011;60383;46.626;18.866;2022-07-29T13:16:32;6.50;;;5.57;;
58071;SDS011;60383;46.626;18.866;2022-07-29T13:19:08;6.97;;;5.68;;
58071;SDS011;60383;46.626;18.866;2022-07-29T13:21:35;6.63;;;5.90;;
58071;SDS011;60383;46.626;18.866;2022-07-29T13:24:02;7.57;;;5.43;;
58071;SDS011;60383;46.626;18.866;2022-07-29T13:26:28;6.88;;;6.15;;
58071;SDS011;60383;46.626;18.866;2022-07-29T13:28:54;6.22;;;5.57;;
58071;SDS011;60383;46.626;18.866;2022-07-29T13:31:20;6.47;;;5.88;;
58071;SDS011;60383;46.626;18.866;2022-07-29T13:33:47;6.20;;;5.60;;
58071;SDS011;60383;46.626;18.866;2022-07-29T13:36:12;6.95;;;5.80;;
58071;SDS011;60383;46.626;18.866;2022-07-29T13:38:38;6.85;;;5.47;;
58071;SDS011;60383;46.626;18.866;2022-07-29T13:41:03;9.95;;;5.55;;
58071;SDS011;60383;46.626;18.866;2022-07-29T13:43:29;8.20;;;6.45;;
58071;SDS011;60383;46.626;18.866;2022-07-29T13:45:55;7.22;;;6.40;;
58071;SDS011;60383;46.626;18.866;2022-07-29T13:48:21;7.22;;;6.53;;
58071;SDS011;60383;46.626;18.866;2022-07-29T13:50:46;7.00;;;6.30;;
58071;SDS011;60383;46.626;18.866;2022-07-29T13:53:13;10.20;;;6.40;;
58071;SDS011;60383;46.626;18.866;2022-07-29T13:55:38;8.30;;;6.38;;
58071;SDS011;60383;46.626;18.866;2022-07-29T13:58:04;8.15;;;6.32;;
58071;SDS011;60383;46.626;18.866;2022-07-29T14:00:30;7.47;;;6.25;;
58071;SDS011;60383;46.626;18.866;2022-07-29T14:02:56;7.40;;;6.57;;
58071;SDS011;60383;46.626;18.866;2022-07-29T14:05:21;7.00;;;6.20;;
58071;SDS011;60383;46.626;18.866;2022-07-29T14:07:47;8.65;;;6.50;;
58071;SDS011;60383;46.626;18.866;2022-07-29T14:10:13;7.88;;;6.90;;
58071;SDS011;60383;46.626;18.866;2022-07-29T14:12:38;7.50;;;6.40;;
58071;SDS011;60383;46.626;18.866;2022-07-29T14:15:04;6.90;;;6.28;;
58071;SDS011;60383;46.626;18.866;2022-07-29T14:17:30;8.52;;;6.20;;
58071;SDS011;60383;46.626;18.866;2022-07-29T14:19:56;8.88;;;6.57;;
58071;SDS011;60383;46.626;18.866;2022-07-29T14:22:21;7.50;;;6.88;;
58071;SDS011;60383;46.626;18.866;2022-07-29T14:24:46;7.13;;;6.43;;
58071;SDS011;60383;46.626;18.866;2022-07-29T14:27:12;7.13;;;6.13;;
58071;SDS011;60383;46.626;18.866;2022-07-29T14:29:37;7.85;;;6.50;;
58071;SDS011;60383;46.626;18.866;2022-07-29T14:32:04;7.05;;;6.53;;
58071;SDS011;60383;46.626;18.866;2022-07-29T14:34:30;7.18;;;6.40;;
58071;SDS011;60383;46.626;18.866;2022-07-29T14:36:56;7.95;;;6.90;;
58071;SDS011;60383;46.626;18.866;2022-07-29T14:39:22;9.55;;;6.43;;
58071;SDS011;60383;46.626;18.866;2022-07-29T14:41:50;8.20;;;6.67;;
58071;SDS011;60383;46.626;18.866;2022-07-29T14:44:16;7.78;;;6.68;;
58071;SDS011;60383;46.626;18.866;2022-07-29T14:46:42;7.53;;;6.93;;
58071;SDS011;60383;46.626;18.866;2022-07-29T14:49:09;7.13;;;6.43;;
58071;SDS011;60383;46.626;18.866;2022-07-29T14:51:34;7.40;;;6.40;;
58071;SDS011;60383;46.626;18.866;2022-07-29T14:54:00;8.65;;;6.90;;
58071;SDS011;60383;46.626;18.866;2022-07-29T14:56:25;8.23;;;6.50;;
58071;SDS011;60383;46.626;18.866;2022-07-29T14:58:51;7.22;;;6.30;;
58071;SDS011;60383;46.626;18.866;2022-07-29T15:01:17;7.03;;;6.32;;
58071;SDS011;60383;46.626;18.866;2022-07-29T15:03:43;8.20;;;7.40;;
58071;SDS011;60383;46.626;18.866;2022-07-29T15:06:08;8.45;;;6.95;;
58071;SDS011;60383;46.626;18.866;2022-07-29T15:08:34;8.00;;;7.00;;
58071;SDS011;60383;46.626;18.866;2022-07-29T15:10:59;12.10;;;7.00;;
58071;SDS011;60383;46.626;18.866;2022-07-29T15:13:25;7.65;;;6.78;;
58071;SDS011;60383;46.626;18.866;2022-07-29T15:15:51;8.38;;;7.20;;
58071;SDS011;60383;46.626;18.866;2022-07-29T15:18:17;9.32;;;7.03;;
58071;SDS011;60383;46.626;18.866;2022-07-29T15:20:43;7.47;;;6.78;;
58071;SDS011;60383;46.626;18.866;2022-07-29T15:23:11;9.45;;;6.70;;
58071;SDS011;60383;46.626;18.866;2022-07-29T15:25:37;7.55;;;6.78;;
58071;SDS011;60383;46.626;18.866;2022-07-29T15:28:04;8.52;;;7.38;;
58071;SDS011;60383;46.626;18.866;2022-07-29T15:30:32;9.48;;;7.13;;
58071;SDS011;60383;46.626;18.866;2022-07-29T15:33:07;7.70;;;6.93;;
58071;SDS011;60383;46.626;18.866;2022-07-29T15:35:35;7.53;;;6.47;;
58071;SDS011;60383;46.626;18.866;2022-07-29T15:38:01;8.60;;;7.05;;